Big Springs, South Dakota
Current Conditions -  °F | °C
As of 6:55 AM on Friday 24 Oct 2014 (Local Time) from KLRJ Reporting Station
Clear Clear  
Wind Chill: 54°   Ceiling: Unl
Heat Index: 54°   Visibility: 10mi
Dew Point: 52°   Wind: 8mph
Humidity: 94%   Direction: 180°S
Pressure: 29.87"   Gusts: NA
Location:  42.9925°N, 96.6362°W
Report Text: KLRJ 241155Z AUTO 18007KT 10SM CLR 12/11 A2987 RMK AO2
Loading
Personal Weather Stations






























Interactive Weather Map
Tropical Storm Tracking
New forecast layout! Learn more

10-Day Weather Forecast

Advertisements
Track Severe Weather on mobile